UAL151 PGUM-RJBB
Flight info
| Callsign | UAL151 |
|---|---|
| Flight time | N/A |
| Altitude | 34000 |
| Route | RICHH A597 ASEDA/N0452F360 A597 BUBDO Y47 TAPOP Y46 EVERT |
| Aircraft | B738/M-SDE2E3FGHIRWXY/LB1 |
Departure
| Time | 2026-04-28 20:06 |
|---|---|
| Airport | Antonio B. Won Pat International Airport (PGUM) |
Arrival
| Time | N/A |
|---|---|
| Airport | Kansai International Airport (RJBB) |
| Time | Latitude | Longitude | Altitude | Speed | Heading |
|---|---|---|---|---|---|
| 2026-04-28 18:43 | 13.49058 | 144.80339 | 280 ft | 0 kts | 333° |
| 2026-04-28 19:49 | 13.49059 | 144.80339 | 280 ft | 0 kts | 333° |
| 2026-04-28 19:49 | 13.49062 | 144.80337 | 279 ft | 2 kts | 333° |
| 2026-04-28 19:49 | 13.49068 | 144.80335 | 278 ft | 0 kts | 333° |
| 2026-04-28 19:50 | 13.49071 | 144.80331 | 278 ft | 0 kts | 333° |
| 2026-04-28 19:50 | 13.49076 | 144.80330 | 277 ft | 1 kts | 334° |
| 2026-04-28 19:50 | 13.49069 | 144.80336 | 278 ft | 1 kts | 306° |
| 2026-04-28 19:51 | 13.49063 | 144.80342 | 280 ft | 1 kts | 355° |
| 2026-04-28 19:51 | 13.49050 | 144.80342 | 281 ft | 2 kts | 335° |
| 2026-04-28 19:51 | 13.49038 | 144.80351 | 283 ft | 2 kts | 330° |
| 2026-04-28 19:51 | 13.49024 | 144.80357 | 285 ft | 2 kts | 332° |
| 2026-04-28 19:52 | 13.49011 | 144.80365 | 288 ft | 2 kts | 332° |
| 2026-04-28 19:52 | 13.48998 | 144.80373 | 290 ft | 2 kts | 332° |
| 2026-04-28 19:52 | 13.48985 | 144.80380 | 292 ft | 2 kts | 330° |
| 2026-04-28 19:52 | 13.48976 | 144.80392 | 293 ft | 2 kts | 276° |
| 2026-04-28 19:53 | 13.48979 | 144.80408 | 293 ft | 2 kts | 233° |
| 2026-04-28 19:53 | 13.48990 | 144.80417 | 293 ft | 2 kts | 226° |
| 2026-04-28 19:53 | 13.49000 | 144.80429 | 293 ft | 2 kts | 228° |
| 2026-04-28 19:53 | 13.49010 | 144.80441 | 293 ft | 2 kts | 236° |
| 2026-04-28 19:54 | 13.49018 | 144.80453 | 294 ft | 2 kts | 241° |
| 2026-04-28 19:54 | 13.49025 | 144.80467 | 294 ft | 2 kts | 242° |
| 2026-04-28 19:54 | 13.49028 | 144.80475 | 294 ft | 0 kts | 241° |
| 2026-04-28 19:56 | 13.49028 | 144.80473 | 294 ft | 0 kts | 241° |
| 2026-04-28 19:56 | 13.49023 | 144.80464 | 294 ft | 2 kts | 241° |
| 2026-04-28 19:57 | 13.49009 | 144.80440 | 293 ft | 5 kts | 236° |
| 2026-04-28 19:57 | 13.48974 | 144.80406 | 293 ft | 8 kts | 216° |
| 2026-04-28 19:57 | 13.48935 | 144.80374 | 293 ft | 6 kts | 225° |
| 2026-04-28 19:57 | 13.48905 | 144.80333 | 292 ft | 8 kts | 239° |
| 2026-04-28 19:58 | 13.48869 | 144.80272 | 288 ft | 10 kts | 240° |
| 2026-04-28 19:58 | 13.48835 | 144.80197 | 285 ft | 12 kts | 245° |
| 2026-04-28 19:58 | 13.48800 | 144.80119 | 283 ft | 11 kts | 245° |
| 2026-04-28 19:58 | 13.48765 | 144.80045 | 282 ft | 11 kts | 245° |
| 2026-04-28 19:59 | 13.48729 | 144.79968 | 283 ft | 11 kts | 245° |
| 2026-04-28 19:59 | 13.48694 | 144.79890 | 283 ft | 12 kts | 245° |
| 2026-04-28 19:59 | 13.48656 | 144.79808 | 284 ft | 13 kts | 244° |
| 2026-04-28 19:59 | 13.48615 | 144.79719 | 284 ft | 14 kts | 245° |
| 2026-04-28 20:00 | 13.48573 | 144.79627 | 284 ft | 13 kts | 244° |
| 2026-04-28 20:00 | 13.48533 | 144.79541 | 283 ft | 12 kts | 244° |
| 2026-04-28 20:00 | 13.48497 | 144.79460 | 282 ft | 12 kts | 245° |
| 2026-04-28 20:00 | 13.48456 | 144.79373 | 281 ft | 14 kts | 245° |
| 2026-04-28 20:01 | 13.48410 | 144.79272 | 279 ft | 16 kts | 245° |
| 2026-04-28 20:01 | 13.48356 | 144.79155 | 276 ft | 19 kts | 244° |
| 2026-04-28 20:01 | 13.48298 | 144.79028 | 272 ft | 19 kts | 245° |
| 2026-04-28 20:01 | 13.48241 | 144.78903 | 268 ft | 19 kts | 245° |
| 2026-04-28 20:02 | 13.48184 | 144.78778 | 263 ft | 17 kts | 245° |
| 2026-04-28 20:02 | 13.48132 | 144.78664 | 259 ft | 18 kts | 245° |
| 2026-04-28 20:02 | 13.48077 | 144.78545 | 255 ft | 18 kts | 244° |
| 2026-04-28 20:02 | 13.48021 | 144.78424 | 252 ft | 18 kts | 244° |
| 2026-04-28 20:03 | 13.47967 | 144.78307 | 250 ft | 15 kts | 245° |
| 2026-04-28 20:03 | 13.47924 | 144.78212 | 246 ft | 13 kts | 245° |
| 2026-04-28 20:03 | 13.47894 | 144.78149 | 243 ft | 8 kts | 231° |
| 2026-04-28 20:03 | 13.47840 | 144.78142 | 242 ft | 7 kts | 158° |
| 2026-04-28 20:04 | 13.47798 | 144.78162 | 242 ft | 4 kts | 140° |
| 2026-04-28 20:04 | 13.47794 | 144.78186 | 243 ft | 1 kts | 71° |
| 2026-04-28 20:04 | 13.47795 | 144.78189 | 243 ft | 0 kts | 67° |
| 2026-04-28 20:05 | 13.47872 | 144.78358 | 254 ft | 59 kts | 65° |
| 2026-04-28 20:05 | 13.48140 | 144.78943 | 270 ft | 120 kts | 65° |
| 2026-04-28 20:06 | 13.48568 | 144.79877 | 286 ft | 168 kts | 65° |
| 2026-04-28 20:06 | 13.49097 | 144.81033 | 690 ft | 178 kts | 65° |
| 2026-04-28 20:06 | 13.49605 | 144.82175 | 1352 ft | 179 kts | 66° |
| 2026-04-28 20:06 | 13.50148 | 144.83330 | 1983 ft | 179 kts | 65° |
| 2026-04-28 20:07 | 13.50725 | 144.84471 | 2426 ft | 181 kts | 65° |
| 2026-04-28 20:07 | 13.51127 | 144.85220 | 2705 ft | 183 kts | 59° |
| 2026-04-28 20:07 | 13.52578 | 144.86116 | 3173 ft | 199 kts | 2° |
| 2026-04-28 20:07 | 13.53907 | 144.85658 | 3508 ft | 211 kts | 328° |
| 2026-04-28 20:08 | 13.55197 | 144.84799 | 3597 ft | 231 kts | 335° |
| 2026-04-28 20:08 | 13.56719 | 144.84049 | 3746 ft | 253 kts | 334° |
| 2026-04-28 20:08 | 13.58320 | 144.83151 | 4167 ft | 266 kts | 333° |
| 2026-04-28 20:08 | 13.59996 | 144.82224 | 4526 ft | 281 kts | 333° |
| 2026-04-28 20:09 | 13.61740 | 144.81268 | 5118 ft | 287 kts | 333° |
| 2026-04-28 20:09 | 13.63520 | 144.80293 | 5717 ft | 292 kts | 332° |
| 2026-04-28 20:09 | 13.65300 | 144.79320 | 6380 ft | 294 kts | 332° |
| 2026-04-28 20:09 | 13.67128 | 144.78320 | 7037 ft | 297 kts | 331° |
| 2026-04-28 20:10 | 13.68928 | 144.77336 | 7708 ft | 299 kts | 330° |
| 2026-04-28 20:10 | 13.70765 | 144.76331 | 8397 ft | 300 kts | 330° |
| 2026-04-28 20:10 | 13.72612 | 144.75320 | 9103 ft | 301 kts | 329° |
| 2026-04-28 20:10 | 13.74459 | 144.74310 | 9818 ft | 302 kts | 329° |
| 2026-04-28 20:11 | 13.76322 | 144.73291 | 10448 ft | 307 kts | 329° |
| 2026-04-28 20:11 | 13.78292 | 144.72211 | 10661 ft | 326 kts | 329° |
| 2026-04-28 20:11 | 13.80296 | 144.71117 | 11452 ft | 324 kts | 329° |
| 2026-04-28 20:11 | 13.82302 | 144.70020 | 11994 ft | 331 kts | 329° |
| 2026-04-28 20:12 | 13.84359 | 144.68893 | 12715 ft | 331 kts | 329° |
| 2026-04-28 20:12 | 13.86411 | 144.67769 | 13345 ft | 335 kts | 329° |
| 2026-04-28 20:12 | 13.88479 | 144.66637 | 13987 ft | 337 kts | 329° |
| 2026-04-28 20:12 | 13.89856 | 144.65883 | 14410 ft | 339 kts | 329° |
| 2026-04-28 20:13 | 13.92674 | 144.64339 | 15248 ft | 343 kts | 329° |
| 2026-04-28 20:13 | 13.94806 | 144.63170 | 15865 ft | 346 kts | 329° |
| 2026-04-28 20:13 | 13.96951 | 144.61995 | 16460 ft | 349 kts | 329° |
| 2026-04-28 20:13 | 13.99100 | 144.60817 | 17034 ft | 352 kts | 329° |
| 2026-04-28 20:14 | 14.01303 | 144.59608 | 17607 ft | 354 kts | 329° |
| 2026-04-28 20:14 | 14.03476 | 144.58417 | 18160 ft | 357 kts | 329° |
| 2026-04-28 20:14 | 14.05687 | 144.57204 | 18694 ft | 360 kts | 329° |
| 2026-04-28 20:14 | 14.07932 | 144.55972 | 19226 ft | 362 kts | 329° |
| 2026-04-28 20:15 | 14.10170 | 144.54744 | 19736 ft | 365 kts | 329° |
| 2026-04-28 20:15 | 14.12423 | 144.53508 | 20233 ft | 367 kts | 329° |
| 2026-04-28 20:15 | 14.14691 | 144.52263 | 20713 ft | 370 kts | 330° |
| 2026-04-28 20:15 | 14.17004 | 144.50993 | 21184 ft | 372 kts | 330° |
| 2026-04-28 20:16 | 14.19292 | 144.49736 | 21645 ft | 375 kts | 330° |
| 2026-04-28 20:16 | 14.21633 | 144.48450 | 22074 ft | 377 kts | 330° |
| 2026-04-28 20:16 | 14.23966 | 144.47168 | 22552 ft | 378 kts | 330° |
| 2026-04-28 20:16 | 14.26309 | 144.45880 | 22967 ft | 381 kts | 330° |
| 2026-04-28 20:17 | 14.28671 | 144.44582 | 23391 ft | 383 kts | 330° |
| 2026-04-28 20:17 | 14.31054 | 144.43271 | 23785 ft | 385 kts | 330° |
| 2026-04-28 20:17 | 14.33447 | 144.41956 | 24180 ft | 387 kts | 330° |
| 2026-04-28 20:17 | 14.35822 | 144.40648 | 24554 ft | 390 kts | 330° |
| 2026-04-28 20:18 | 14.38262 | 144.39305 | 24941 ft | 391 kts | 330° |
| 2026-04-28 20:18 | 14.39874 | 144.38419 | 25171 ft | 393 kts | 330° |
| 2026-04-28 20:18 | 14.43121 | 144.36630 | 25653 ft | 395 kts | 330° |
| 2026-04-28 20:18 | 14.45592 | 144.35269 | 25981 ft | 398 kts | 330° |
| 2026-04-28 20:19 | 14.48074 | 144.33902 | 26343 ft | 399 kts | 330° |
| 2026-04-28 20:19 | 14.50552 | 144.32544 | 26672 ft | 401 kts | 330° |
| 2026-04-28 20:19 | 14.53041 | 144.31183 | 26971 ft | 404 kts | 330° |
| 2026-04-28 20:19 | 14.55558 | 144.29807 | 27287 ft | 406 kts | 330° |
| 2026-04-28 20:20 | 14.58112 | 144.28401 | 27602 ft | 407 kts | 330° |
| 2026-04-28 20:20 | 14.60624 | 144.27016 | 27895 ft | 409 kts | 330° |
| 2026-04-28 20:20 | 14.63196 | 144.25603 | 28185 ft | 411 kts | 330° |
| 2026-04-28 20:20 | 14.65732 | 144.24211 | 28485 ft | 413 kts | 330° |
| 2026-04-28 20:21 | 14.68301 | 144.22792 | 28769 ft | 414 kts | 330° |
| 2026-04-28 20:21 | 14.70871 | 144.21372 | 29041 ft | 416 kts | 330° |
| 2026-04-28 20:21 | 14.73462 | 144.19939 | 29309 ft | 417 kts | 330° |
| 2026-04-28 20:21 | 14.75994 | 144.18539 | 29557 ft | 419 kts | 330° |
| 2026-04-28 20:22 | 14.78652 | 144.17075 | 29815 ft | 421 kts | 330° |
| 2026-04-28 20:22 | 14.81257 | 144.15639 | 30036 ft | 423 kts | 330° |
| 2026-04-28 20:22 | 14.83862 | 144.14201 | 30255 ft | 424 kts | 330° |
| 2026-04-28 20:22 | 14.86484 | 144.12747 | 30500 ft | 426 kts | 330° |
| 2026-04-28 20:23 | 14.89152 | 144.11273 | 30767 ft | 426 kts | 330° |
| 2026-04-28 20:23 | 14.91791 | 144.09816 | 31067 ft | 425 kts | 331° |
| 2026-04-28 20:23 | 14.94430 | 144.08356 | 31360 ft | 425 kts | 331° |
| 2026-04-28 20:23 | 14.97073 | 144.06892 | 31562 ft | 426 kts | 332° |
| 2026-04-28 20:24 | 14.99688 | 144.05443 | 31766 ft | 427 kts | 333° |
| 2026-04-28 20:24 | 15.05036 | 144.02475 | 31918 ft | 436 kts | 333° |
| 2026-04-28 20:24 | 15.07757 | 144.00955 | 32132 ft | 437 kts | 333° |
| 2026-04-28 20:25 | 15.10443 | 143.99452 | 32299 ft | 439 kts | 333° |
| 2026-04-28 20:25 | 15.13162 | 143.97937 | 32464 ft | 440 kts | 333° |
| 2026-04-28 20:25 | 15.15912 | 143.96407 | 32664 ft | 441 kts | 333° |
| 2026-04-28 20:25 | 15.18626 | 143.94897 | 32821 ft | 443 kts | 333° |
| 2026-04-28 20:26 | 15.21346 | 143.93385 | 33014 ft | 443 kts | 333° |
| 2026-04-28 20:26 | 15.24104 | 143.91850 | 33181 ft | 445 kts | 333° |
| 2026-04-28 20:26 | 15.26834 | 143.90334 | 33381 ft | 444 kts | 333° |
| 2026-04-28 20:26 | 15.29577 | 143.88808 | 33698 ft | 442 kts | 333° |
| 2026-04-28 20:27 | 15.32273 | 143.87308 | 33941 ft | 440 kts | 333° |
| 2026-04-28 20:27 | 15.37745 | 143.84265 | 33992 ft | 448 kts | 333° |
| 2026-04-28 20:28 | 15.43292 | 143.81178 | 33990 ft | 451 kts | 333° |
| 2026-04-28 20:28 | 15.48832 | 143.78093 | 33991 ft | 449 kts | 333° |
| 2026-04-28 20:29 | 15.54357 | 143.75015 | 33991 ft | 448 kts | 333° |
| 2026-04-28 20:29 | 15.59897 | 143.71927 | 33995 ft | 449 kts | 333° |
| 2026-04-28 20:30 | 15.65378 | 143.68869 | 33997 ft | 439 kts | 333° |
| 2026-04-28 20:30 | 15.70746 | 143.65872 | 34001 ft | 438 kts | 333° |
| 2026-04-28 20:31 | 15.76159 | 143.62851 | 34000 ft | 440 kts | 333° |
| 2026-04-28 20:31 | 15.81556 | 143.59834 | 34000 ft | 440 kts | 333° |
| 2026-04-28 20:32 | 15.86972 | 143.56807 | 33999 ft | 439 kts | 333° |
| 2026-04-28 20:32 | 15.92372 | 143.53786 | 34000 ft | 439 kts | 333° |
| 2026-04-28 20:33 | 15.97810 | 143.50742 | 34000 ft | 439 kts | 333° |
| 2026-04-28 20:33 | 16.03209 | 143.47717 | 34000 ft | 439 kts | 333° |
| 2026-04-28 20:34 | 16.08588 | 143.44701 | 34000 ft | 439 kts | 333° |
| 2026-04-28 20:34 | 16.14029 | 143.41650 | 33999 ft | 439 kts | 333° |
| 2026-04-28 20:35 | 16.19412 | 143.38631 | 34000 ft | 439 kts | 333° |
| 2026-04-28 20:35 | 16.24773 | 143.35620 | 34000 ft | 439 kts | 333° |
| 2026-04-28 20:36 | 16.30174 | 143.32585 | 34000 ft | 439 kts | 333° |
| 2026-04-28 20:36 | 16.35595 | 143.29536 | 34000 ft | 439 kts | 333° |
| 2026-04-28 20:37 | 16.40997 | 143.26498 | 34000 ft | 439 kts | 333° |
| 2026-04-28 20:37 | 16.46391 | 143.23462 | 33999 ft | 439 kts | 333° |
| 2026-04-28 20:38 | 16.51768 | 143.20433 | 33999 ft | 439 kts | 333° |
| 2026-04-28 20:38 | 16.57146 | 143.17401 | 33999 ft | 439 kts | 333° |
| 2026-04-28 20:39 | 16.62558 | 143.14349 | 34000 ft | 439 kts | 333° |
| 2026-04-28 20:39 | 16.67933 | 143.11316 | 34000 ft | 439 kts | 333° |
| 2026-04-28 20:40 | 16.73361 | 143.08250 | 33999 ft | 439 kts | 333° |
| 2026-04-28 20:40 | 16.78774 | 143.05191 | 33999 ft | 439 kts | 333° |
| 2026-04-28 20:41 | 16.84173 | 143.02138 | 34000 ft | 439 kts | 333° |
| 2026-04-28 20:41 | 16.89571 | 142.99083 | 33999 ft | 438 kts | 333° |
| 2026-04-28 20:42 | 16.94918 | 142.96056 | 34000 ft | 437 kts | 333° |
| 2026-04-28 20:42 | 17.00319 | 142.92995 | 33999 ft | 437 kts | 333° |
| 2026-04-28 20:43 | 17.05681 | 142.89955 | 34000 ft | 438 kts | 334° |
| 2026-04-28 20:43 | 17.11126 | 142.86867 | 34000 ft | 441 kts | 334° |
| 2026-04-28 20:44 | 17.16550 | 142.83787 | 33999 ft | 444 kts | 334° |
| 2026-04-28 20:44 | 17.22016 | 142.80681 | 33999 ft | 444 kts | 334° |
| 2026-04-28 20:45 | 17.27486 | 142.77567 | 34000 ft | 444 kts | 334° |
| 2026-04-28 20:45 | 17.32939 | 142.74458 | 33999 ft | 444 kts | 334° |
| 2026-04-28 20:46 | 17.38403 | 142.71344 | 34000 ft | 444 kts | 334° |
| 2026-04-28 20:46 | 17.43824 | 142.68251 | 33999 ft | 444 kts | 334° |
| 2026-04-28 20:47 | 17.49282 | 142.65135 | 33999 ft | 444 kts | 334° |
| 2026-04-28 20:47 | 17.54756 | 142.62007 | 34174 ft | 445 kts | 334° |
| 2026-04-28 20:47 | 17.57492 | 142.60443 | 34280 ft | 447 kts | 334° |
| 2026-04-28 20:48 | 17.60224 | 142.58882 | 34420 ft | 448 kts | 334° |
| 2026-04-28 20:48 | 17.63002 | 142.57292 | 34614 ft | 448 kts | 334° |
| 2026-04-28 20:48 | 17.65734 | 142.55728 | 34797 ft | 448 kts | 334° |
| 2026-04-28 20:48 | 17.68490 | 142.54150 | 34998 ft | 448 kts | 334° |
| 2026-04-28 20:49 | 17.71234 | 142.52579 | 35194 ft | 447 kts | 334° |
| 2026-04-28 20:49 | 17.73988 | 142.51012 | 35375 ft | 447 kts | 335° |
| 2026-04-28 20:49 | 17.76801 | 142.49658 | 35547 ft | 445 kts | 340° |
| 2026-04-28 20:49 | 17.79704 | 142.48480 | 35756 ft | 443 kts | 341° |
| 2026-04-28 20:50 | 17.82602 | 142.47288 | 35935 ft | 443 kts | 340° |
| 2026-04-28 20:50 | 17.88372 | 142.44791 | 35999 ft | 446 kts | 340° |
| 2026-04-28 20:51 | 17.94136 | 142.42285 | 36000 ft | 443 kts | 340° |
| 2026-04-28 20:51 | 17.99837 | 142.39793 | 36000 ft | 442 kts | 340° |
| 2026-04-28 20:52 | 18.05543 | 142.37291 | 36000 ft | 443 kts | 340° |
| 2026-04-28 20:52 | 18.11266 | 142.34775 | 35999 ft | 443 kts | 339° |
| 2026-04-28 20:53 | 18.19838 | 142.31000 | 35999 ft | 443 kts | 339° |
| 2026-04-28 20:53 | 18.25552 | 142.28481 | 35999 ft | 443 kts | 339° |
| 2026-04-28 20:54 | 18.31261 | 142.25961 | 36000 ft | 443 kts | 339° |
| 2026-04-28 20:54 | 18.36964 | 142.23442 | 36000 ft | 443 kts | 339° |
| 2026-04-28 20:55 | 18.42671 | 142.20920 | 36000 ft | 443 kts | 339° |
| 2026-04-28 20:55 | 18.48341 | 142.18411 | 36000 ft | 443 kts | 339° |
| 2026-04-28 20:56 | 18.54051 | 142.15883 | 35999 ft | 443 kts | 339° |
| 2026-04-28 20:56 | 18.59748 | 142.13359 | 35999 ft | 443 kts | 339° |
| 2026-04-28 20:57 | 18.65465 | 142.10825 | 36000 ft | 443 kts | 339° |
| 2026-04-28 20:57 | 18.71166 | 142.08295 | 36000 ft | 443 kts | 339° |
| 2026-04-28 20:58 | 18.76897 | 142.05749 | 35999 ft | 443 kts | 339° |
| 2026-04-28 20:58 | 18.82588 | 142.03220 | 36000 ft | 443 kts | 339° |
| 2026-04-28 20:59 | 18.88330 | 142.00667 | 36000 ft | 443 kts | 339° |
| 2026-04-28 20:59 | 18.94031 | 141.98129 | 35999 ft | 435 kts | 339° |
| 2026-04-28 21:00 | 18.99547 | 141.95673 | 35999 ft | 426 kts | 338° |
| 2026-04-28 21:00 | 19.05036 | 141.93227 | 36000 ft | 427 kts | 336° |
| 2026-04-28 21:01 | 19.10582 | 141.90753 | 36000 ft | 430 kts | 336° |
| 2026-04-28 21:01 | 19.16116 | 141.88284 | 35999 ft | 430 kts | 336° |
| 2026-04-28 21:02 | 19.21658 | 141.85808 | 35999 ft | 428 kts | 336° |
| 2026-04-28 21:02 | 19.27164 | 141.83347 | 36000 ft | 428 kts | 336° |
| 2026-04-28 21:03 | 19.32655 | 141.80891 | 36000 ft | 428 kts | 336° |
| 2026-04-28 21:03 | 19.38174 | 141.78421 | 36000 ft | 428 kts | 336° |
| 2026-04-28 21:04 | 19.43699 | 141.75946 | 35999 ft | 428 kts | 336° |
| 2026-04-28 21:04 | 19.49167 | 141.73494 | 35999 ft | 428 kts | 336° |
| 2026-04-28 21:05 | 19.54665 | 141.71028 | 36000 ft | 428 kts | 336° |
| 2026-04-28 21:05 | 19.60196 | 141.68545 | 36000 ft | 428 kts | 336° |
| 2026-04-28 21:06 | 19.65676 | 141.66083 | 36000 ft | 428 kts | 336° |
| 2026-04-28 21:06 | 19.71176 | 141.63611 | 35999 ft | 428 kts | 336° |
| 2026-04-28 21:07 | 19.76687 | 141.61130 | 36000 ft | 428 kts | 336° |
| 2026-04-28 21:07 | 19.82204 | 141.58646 | 35999 ft | 428 kts | 336° |
| 2026-04-28 21:08 | 19.87715 | 141.56161 | 35999 ft | 428 kts | 336° |
| 2026-04-28 21:08 | 19.93222 | 141.53679 | 35999 ft | 428 kts | 336° |
| 2026-04-28 21:09 | 19.98747 | 141.51186 | 36000 ft | 428 kts | 336° |
| 2026-04-28 21:09 | 20.04244 | 141.48703 | 35999 ft | 428 kts | 336° |
| 2026-04-28 21:10 | 20.09744 | 141.46216 | 35999 ft | 428 kts | 336° |
| 2026-04-28 21:10 | 20.15227 | 141.43736 | 36000 ft | 428 kts | 336° |
| 2026-04-28 21:11 | 20.20720 | 141.41251 | 36000 ft | 428 kts | 336° |
| 2026-04-28 21:11 | 20.26276 | 141.38734 | 36000 ft | 428 kts | 336° |
| 2026-04-28 21:12 | 20.31779 | 141.36240 | 36000 ft | 428 kts | 336° |
| 2026-04-28 21:12 | 20.37298 | 141.33736 | 35999 ft | 428 kts | 336° |
| 2026-04-28 21:13 | 20.42780 | 141.31245 | 36000 ft | 428 kts | 336° |
| 2026-04-28 21:13 | 20.48282 | 141.28744 | 35999 ft | 428 kts | 336° |
| 2026-04-28 21:14 | 20.53782 | 141.26244 | 36000 ft | 428 kts | 336° |
| 2026-04-28 21:14 | 20.59285 | 141.23740 | 35999 ft | 428 kts | 336° |
| 2026-04-28 21:15 | 20.64807 | 141.21223 | 36000 ft | 428 kts | 336° |
| 2026-04-28 21:15 | 20.70290 | 141.18724 | 35999 ft | 428 kts | 336° |
| 2026-04-28 21:16 | 20.75781 | 141.16220 | 35999 ft | 428 kts | 336° |
| 2026-04-28 21:16 | 20.81273 | 141.13711 | 36000 ft | 427 kts | 336° |
| 2026-04-28 21:17 | 20.86797 | 141.11188 | 35999 ft | 428 kts | 336° |
| 2026-04-28 21:17 | 20.92292 | 141.08675 | 36000 ft | 429 kts | 336° |
| 2026-04-28 21:18 | 20.97815 | 141.06146 | 36000 ft | 430 kts | 336° |
| 2026-04-28 21:18 | 21.03336 | 141.03618 | 35999 ft | 429 kts | 336° |
| 2026-04-28 21:19 | 21.08819 | 141.01105 | 35999 ft | 425 kts | 336° |
| 2026-04-28 21:19 | 21.14262 | 140.98607 | 35999 ft | 423 kts | 337° |
| 2026-04-28 21:20 | 21.19682 | 140.96118 | 36000 ft | 425 kts | 337° |
| 2026-04-28 21:20 | 21.25180 | 140.93593 | 36000 ft | 427 kts | 337° |
| 2026-04-28 21:21 | 21.30647 | 140.91078 | 35999 ft | 428 kts | 337° |
| 2026-04-28 21:21 | 21.36159 | 140.88541 | 35999 ft | 429 kts | 337° |
| 2026-04-28 21:22 | 21.41642 | 140.86015 | 36000 ft | 429 kts | 337° |
| 2026-04-28 21:22 | 21.46251 | 140.83891 | 36000 ft | 429 kts | 337° |
| 2026-04-28 21:23 | 21.52679 | 140.80925 | 35999 ft | 429 kts | 337° |
| 2026-04-28 21:23 | 21.58205 | 140.78374 | 36000 ft | 429 kts | 337° |
| 2026-04-28 21:24 | 21.63702 | 140.75833 | 36000 ft | 429 kts | 337° |
| 2026-04-28 21:24 | 21.69187 | 140.73296 | 36000 ft | 429 kts | 337° |
| 2026-04-28 21:25 | 21.74688 | 140.70749 | 35999 ft | 429 kts | 337° |
| 2026-04-28 21:25 | 21.80184 | 140.68202 | 36000 ft | 429 kts | 337° |
| 2026-04-28 21:26 | 21.85633 | 140.65675 | 35999 ft | 429 kts | 337° |
| 2026-04-28 21:26 | 21.91098 | 140.63139 | 36000 ft | 429 kts | 337° |
| 2026-04-28 21:27 | 21.96613 | 140.60577 | 35999 ft | 429 kts | 337° |
| 2026-04-28 21:27 | 22.02092 | 140.58031 | 35999 ft | 429 kts | 337° |
| 2026-04-28 21:28 | 22.07608 | 140.55464 | 35999 ft | 429 kts | 337° |
| 2026-04-28 21:28 | 22.13092 | 140.52910 | 35999 ft | 429 kts | 337° |
| 2026-04-28 21:29 | 22.18561 | 140.50363 | 36000 ft | 429 kts | 337° |
| 2026-04-28 21:29 | 22.24069 | 140.47794 | 36000 ft | 429 kts | 337° |
| 2026-04-28 21:30 | 22.29552 | 140.45235 | 35999 ft | 428 kts | 337° |
| 2026-04-28 21:30 | 22.35062 | 140.42659 | 36000 ft | 428 kts | 337° |
| 2026-04-28 21:31 | 22.40546 | 140.40094 | 36000 ft | 428 kts | 337° |
| 2026-04-28 21:31 | 22.46028 | 140.37529 | 36000 ft | 428 kts | 337° |
| 2026-04-28 21:32 | 22.51550 | 140.34943 | 36000 ft | 428 kts | 336° |
| 2026-04-28 21:32 | 22.57034 | 140.32370 | 36000 ft | 428 kts | 336° |
| 2026-04-28 21:33 | 22.62550 | 140.29782 | 36007 ft | 428 kts | 336° |
| 2026-04-28 21:33 | 22.68040 | 140.27203 | 36017 ft | 428 kts | 336° |
| 2026-04-28 21:34 | 22.73550 | 140.24614 | 36029 ft | 428 kts | 336° |
| 2026-04-28 21:34 | 22.79068 | 140.22017 | 36034 ft | 428 kts | 336° |
| 2026-04-28 21:35 | 22.84569 | 140.19426 | 36039 ft | 428 kts | 336° |
| 2026-04-28 21:35 | 22.90057 | 140.16840 | 36045 ft | 428 kts | 336° |
| 2026-04-28 21:36 | 22.95532 | 140.14258 | 36047 ft | 426 kts | 336° |
| 2026-04-28 21:36 | 23.00978 | 140.11687 | 36047 ft | 423 kts | 336° |
| 2026-04-28 21:37 | 23.06395 | 140.09126 | 36047 ft | 421 kts | 336° |
| 2026-04-28 21:37 | 23.11783 | 140.06578 | 36047 ft | 421 kts | 336° |
| 2026-04-28 21:38 | 23.17201 | 140.04013 | 36047 ft | 422 kts | 336° |
| 2026-04-28 21:38 | 23.22646 | 140.01434 | 36047 ft | 422 kts | 336° |
| 2026-04-28 21:39 | 23.28041 | 139.98875 | 36047 ft | 422 kts | 336° |
| 2026-04-28 21:39 | 23.33486 | 139.96291 | 36047 ft | 422 kts | 336° |
| 2026-04-28 21:40 | 23.38882 | 139.93727 | 36047 ft | 422 kts | 336° |
| 2026-04-28 21:40 | 23.44318 | 139.91142 | 36047 ft | 422 kts | 336° |
| 2026-04-28 21:41 | 23.49754 | 139.88554 | 36047 ft | 422 kts | 336° |
| 2026-04-28 21:41 | 23.55166 | 139.85976 | 36046 ft | 421 kts | 336° |
| 2026-04-28 21:42 | 23.60573 | 139.83398 | 36047 ft | 421 kts | 336° |
| 2026-04-28 21:42 | 23.65987 | 139.80815 | 36047 ft | 421 kts | 336° |
| 2026-04-28 21:43 | 23.71417 | 139.78221 | 36047 ft | 422 kts | 336° |
| 2026-04-28 21:43 | 23.76815 | 139.75639 | 36047 ft | 421 kts | 336° |
| 2026-04-28 21:44 | 23.82248 | 139.73041 | 36047 ft | 421 kts | 336° |
| 2026-04-28 21:44 | 23.87667 | 139.70445 | 36047 ft | 421 kts | 336° |
| 2026-04-28 21:45 | 23.93085 | 139.67847 | 36047 ft | 421 kts | 336° |
| 2026-04-28 21:45 | 23.98499 | 139.65250 | 36047 ft | 421 kts | 336° |
| 2026-04-28 21:46 | 24.03918 | 139.62646 | 36047 ft | 421 kts | 336° |
| 2026-04-28 21:46 | 24.09318 | 139.60049 | 36047 ft | 421 kts | 336° |
| 2026-04-28 21:47 | 24.14709 | 139.57457 | 36046 ft | 421 kts | 336° |
| 2026-04-28 21:47 | 24.20143 | 139.54840 | 36047 ft | 421 kts | 336° |
| 2026-04-28 21:48 | 24.25559 | 139.52229 | 36047 ft | 421 kts | 336° |
| 2026-04-28 21:48 | 24.30971 | 139.49618 | 36047 ft | 421 kts | 336° |
| 2026-04-28 21:49 | 24.36359 | 139.47015 | 36047 ft | 421 kts | 336° |
| 2026-04-28 21:49 | 24.41776 | 139.44397 | 36047 ft | 422 kts | 336° |
| 2026-04-28 21:50 | 24.47175 | 139.41785 | 36047 ft | 421 kts | 336° |
| 2026-04-28 21:50 | 24.52573 | 139.39169 | 36047 ft | 421 kts | 336° |
| 2026-04-28 21:51 | 24.58003 | 139.36537 | 36047 ft | 421 kts | 336° |
| 2026-04-28 21:51 | 24.63391 | 139.33923 | 36047 ft | 421 kts | 336° |
| 2026-04-28 21:52 | 24.68822 | 139.31285 | 36047 ft | 421 kts | 336° |
| 2026-04-28 21:52 | 24.74201 | 139.28670 | 36047 ft | 421 kts | 336° |
| 2026-04-28 21:53 | 24.79579 | 139.26053 | 36047 ft | 421 kts | 336° |
| 2026-04-28 21:53 | 24.84979 | 139.23422 | 36047 ft | 421 kts | 336° |
| 2026-04-28 21:54 | 24.90332 | 139.20813 | 36047 ft | 421 kts | 336° |
| 2026-04-28 21:54 | 24.95701 | 139.18193 | 36047 ft | 421 kts | 336° |
| 2026-04-28 21:55 | 25.01088 | 139.15614 | 36046 ft | 421 kts | 338° |
| 2026-04-28 21:55 | 25.06699 | 139.13570 | 36047 ft | 420 kts | 340° |
| 2026-04-28 21:56 | 25.12259 | 139.11540 | 36047 ft | 420 kts | 339° |
| 2026-04-28 21:56 | 25.17832 | 139.09491 | 36047 ft | 421 kts | 339° |
| 2026-04-28 21:57 | 25.23407 | 139.07442 | 36047 ft | 422 kts | 339° |
| 2026-04-28 21:57 | 25.29016 | 139.05377 | 36047 ft | 422 kts | 339° |
| 2026-04-28 21:58 | 25.34657 | 139.03299 | 36047 ft | 423 kts | 339° |
| 2026-04-28 21:58 | 25.40257 | 139.01234 | 36045 ft | 422 kts | 339° |
| 2026-04-28 21:59 | 25.45885 | 138.99176 | 36047 ft | 424 kts | 339° |
| 2026-04-28 22:00 | 25.54303 | 138.96048 | 36047 ft | 425 kts | 339° |
| 2026-04-28 22:00 | 25.59921 | 138.93967 | 36047 ft | 425 kts | 339° |
| 2026-04-28 22:01 | 25.65519 | 138.91891 | 36047 ft | 425 kts | 339° |
| 2026-04-28 22:01 | 25.71175 | 138.89792 | 36047 ft | 425 kts | 339° |
| 2026-04-28 22:02 | 25.76808 | 138.87700 | 36047 ft | 425 kts | 339° |
| 2026-04-28 22:02 | 25.82446 | 138.85605 | 36047 ft | 425 kts | 339° |
| 2026-04-28 22:03 | 25.88102 | 138.83501 | 36047 ft | 425 kts | 339° |
| 2026-04-28 22:03 | 25.93747 | 138.81398 | 36047 ft | 425 kts | 339° |
| 2026-04-28 22:04 | 25.99373 | 138.79300 | 36047 ft | 425 kts | 339° |
| 2026-04-28 22:04 | 26.04981 | 138.77208 | 36047 ft | 425 kts | 339° |
| 2026-04-28 22:05 | 26.10629 | 138.75098 | 36047 ft | 425 kts | 339° |
| 2026-04-28 22:05 | 26.16243 | 138.73000 | 36047 ft | 425 kts | 339° |
| 2026-04-28 22:06 | 26.21844 | 138.70903 | 36047 ft | 424 kts | 339° |
| 2026-04-28 22:06 | 26.27496 | 138.68785 | 36047 ft | 424 kts | 339° |
| 2026-04-28 22:07 | 26.33124 | 138.66675 | 36047 ft | 424 kts | 339° |
| 2026-04-28 22:07 | 26.38705 | 138.64580 | 36047 ft | 425 kts | 339° |
| 2026-04-28 22:08 | 26.44389 | 138.62444 | 36047 ft | 424 kts | 339° |
| 2026-04-28 22:08 | 26.50002 | 138.60332 | 36047 ft | 424 kts | 339° |
| 2026-04-28 22:09 | 26.55616 | 138.58217 | 36047 ft | 424 kts | 339° |
| 2026-04-28 22:09 | 26.61262 | 138.56088 | 36047 ft | 424 kts | 339° |
| 2026-04-28 22:10 | 26.66924 | 138.53952 | 36047 ft | 424 kts | 339° |
| 2026-04-28 22:10 | 26.72582 | 138.51814 | 36047 ft | 424 kts | 339° |
| 2026-04-28 22:11 | 26.78214 | 138.49684 | 36047 ft | 424 kts | 339° |
| 2026-04-28 22:11 | 26.83817 | 138.47563 | 36047 ft | 425 kts | 339° |
| 2026-04-28 22:12 | 26.89448 | 138.45428 | 36047 ft | 424 kts | 339° |
| 2026-04-28 22:12 | 26.95060 | 138.43300 | 36047 ft | 423 kts | 339° |
| 2026-04-28 22:13 | 27.00690 | 138.41162 | 36047 ft | 421 kts | 339° |
| 2026-04-28 22:13 | 27.06297 | 138.39031 | 36043 ft | 420 kts | 339° |
| 2026-04-28 22:14 | 27.11910 | 138.36894 | 36034 ft | 420 kts | 339° |
| 2026-04-28 22:14 | 27.17526 | 138.34755 | 36027 ft | 421 kts | 339° |
| 2026-04-28 22:15 | 27.23104 | 138.32628 | 36022 ft | 421 kts | 339° |
| 2026-04-28 22:15 | 27.28710 | 138.30489 | 36012 ft | 420 kts | 339° |
| 2026-04-28 22:16 | 27.34303 | 138.28351 | 36000 ft | 420 kts | 339° |
| 2026-04-28 22:16 | 27.39923 | 138.26201 | 35993 ft | 420 kts | 339° |
| 2026-04-28 22:17 | 27.45525 | 138.24056 | 35993 ft | 420 kts | 339° |
| 2026-04-28 22:17 | 27.51085 | 138.21922 | 35993 ft | 420 kts | 339° |
| 2026-04-28 22:18 | 27.56684 | 138.19774 | 35993 ft | 420 kts | 339° |
| 2026-04-28 22:18 | 27.62215 | 138.17648 | 35993 ft | 420 kts | 339° |
| 2026-04-28 22:19 | 27.67725 | 138.15530 | 35993 ft | 420 kts | 339° |
| 2026-04-28 22:19 | 27.73292 | 138.13386 | 35993 ft | 420 kts | 339° |
| 2026-04-28 22:20 | 27.78833 | 138.11250 | 35993 ft | 420 kts | 339° |
| 2026-04-28 22:20 | 27.84374 | 138.09113 | 35993 ft | 420 kts | 339° |
| 2026-04-28 22:21 | 27.89953 | 138.06957 | 35993 ft | 420 kts | 339° |
| 2026-04-28 22:21 | 27.95509 | 138.04808 | 35993 ft | 420 kts | 339° |
| 2026-04-28 22:22 | 28.01105 | 138.02643 | 35993 ft | 420 kts | 339° |
| 2026-04-28 22:22 | 28.06679 | 138.00482 | 35993 ft | 420 kts | 339° |
| 2026-04-28 22:23 | 28.12287 | 137.98306 | 35993 ft | 420 kts | 339° |
| 2026-04-28 22:23 | 28.17831 | 137.96153 | 35993 ft | 420 kts | 339° |
| 2026-04-28 22:24 | 28.23410 | 137.93983 | 35993 ft | 420 kts | 339° |
| 2026-04-28 22:24 | 28.29006 | 137.91805 | 35993 ft | 420 kts | 339° |
| 2026-04-28 22:25 | 28.34595 | 137.89627 | 35993 ft | 420 kts | 339° |
| 2026-04-28 22:25 | 28.40189 | 137.87445 | 35993 ft | 420 kts | 339° |
| 2026-04-28 22:26 | 28.45756 | 137.85271 | 35993 ft | 420 kts | 339° |
| 2026-04-28 22:26 | 28.51300 | 137.83102 | 35993 ft | 420 kts | 339° |
| 2026-04-28 22:27 | 28.56835 | 137.80936 | 35993 ft | 419 kts | 339° |
| 2026-04-28 22:27 | 28.62357 | 137.78772 | 35993 ft | 419 kts | 339° |
| 2026-04-28 22:28 | 28.67913 | 137.76593 | 35993 ft | 419 kts | 339° |
| 2026-04-28 22:28 | 28.73486 | 137.74403 | 35993 ft | 419 kts | 339° |
| 2026-04-28 22:29 | 28.78987 | 137.72241 | 35993 ft | 419 kts | 339° |
| 2026-04-28 22:29 | 28.84508 | 137.70068 | 35993 ft | 419 kts | 339° |
| 2026-04-28 22:30 | 28.90076 | 137.67873 | 35993 ft | 419 kts | 339° |
| 2026-04-28 22:30 | 28.95621 | 137.65686 | 35993 ft | 419 kts | 339° |
| 2026-04-28 22:31 | 29.01156 | 137.63500 | 35993 ft | 420 kts | 339° |
| 2026-04-28 22:31 | 29.06723 | 137.61298 | 35993 ft | 422 kts | 338° |
| 2026-04-28 22:32 | 29.12346 | 137.59071 | 35993 ft | 425 kts | 338° |
| 2026-04-28 22:32 | 29.18026 | 137.56821 | 35993 ft | 425 kts | 338° |
| 2026-04-28 22:33 | 29.23692 | 137.54573 | 35993 ft | 425 kts | 338° |
| 2026-04-28 22:33 | 29.29334 | 137.52333 | 35993 ft | 424 kts | 338° |
| 2026-04-28 22:34 | 29.34986 | 137.50084 | 35993 ft | 424 kts | 338° |
| 2026-04-28 22:34 | 29.40622 | 137.47841 | 35993 ft | 425 kts | 338° |
| 2026-04-28 22:35 | 29.46285 | 137.45583 | 35993 ft | 425 kts | 338° |
| 2026-04-28 22:35 | 29.51931 | 137.43329 | 35993 ft | 425 kts | 338° |
| 2026-04-28 22:36 | 29.57560 | 137.41080 | 35993 ft | 424 kts | 338° |
| 2026-04-28 22:36 | 29.63191 | 137.38827 | 35993 ft | 424 kts | 338° |
| 2026-04-28 22:37 | 29.68845 | 137.36563 | 35993 ft | 424 kts | 338° |
| 2026-04-28 22:37 | 29.74500 | 137.34294 | 35993 ft | 424 kts | 338° |
| 2026-04-28 22:38 | 29.80106 | 137.32045 | 35993 ft | 424 kts | 338° |
| 2026-04-28 22:38 | 29.85759 | 137.29773 | 35993 ft | 424 kts | 338° |
| 2026-04-28 22:39 | 29.91363 | 137.27516 | 35993 ft | 424 kts | 338° |
| 2026-04-28 22:39 | 29.97001 | 137.25246 | 35993 ft | 424 kts | 338° |
| 2026-04-28 22:40 | 30.02618 | 137.22980 | 35993 ft | 424 kts | 338° |
| 2026-04-28 22:40 | 30.08258 | 137.20703 | 35993 ft | 424 kts | 338° |
| 2026-04-28 22:41 | 30.13883 | 137.18430 | 35993 ft | 424 kts | 338° |
| 2026-04-28 22:41 | 30.19510 | 137.16153 | 35993 ft | 424 kts | 338° |
| 2026-04-28 22:42 | 30.25177 | 137.13855 | 35993 ft | 424 kts | 338° |
| 2026-04-28 22:42 | 30.30805 | 137.11572 | 35993 ft | 424 kts | 338° |
| 2026-04-28 22:43 | 30.36436 | 137.09286 | 35993 ft | 424 kts | 338° |
| 2026-04-28 22:43 | 30.42053 | 137.07002 | 35993 ft | 424 kts | 338° |
| 2026-04-28 22:44 | 30.47677 | 137.04712 | 35993 ft | 423 kts | 338° |
| 2026-04-28 22:44 | 30.53285 | 137.02426 | 35993 ft | 424 kts | 338° |
| 2026-04-28 22:45 | 30.58908 | 137.00131 | 35993 ft | 424 kts | 338° |
| 2026-04-28 22:45 | 30.64571 | 136.97816 | 35993 ft | 424 kts | 338° |
| 2026-04-28 22:46 | 30.70182 | 136.95520 | 35993 ft | 423 kts | 338° |
| 2026-04-28 22:46 | 30.75765 | 136.93233 | 35993 ft | 423 kts | 338° |
| 2026-04-28 22:47 | 30.81348 | 136.90944 | 35993 ft | 423 kts | 338° |
| 2026-04-28 22:47 | 30.86909 | 136.88660 | 35993 ft | 423 kts | 338° |
| 2026-04-28 22:48 | 30.92498 | 136.86362 | 35993 ft | 422 kts | 338° |
| 2026-04-28 22:48 | 30.98045 | 136.84079 | 35992 ft | 419 kts | 337° |
| 2026-04-28 22:49 | 31.03577 | 136.81799 | 35993 ft | 416 kts | 337° |
| 2026-04-28 22:49 | 31.09059 | 136.79538 | 35993 ft | 416 kts | 337° |
| 2026-04-28 22:50 | 31.14603 | 136.77267 | 35993 ft | 417 kts | 337° |
| 2026-04-28 22:50 | 31.20107 | 136.75003 | 35992 ft | 417 kts | 337° |
| 2026-04-28 22:51 | 31.25622 | 136.72717 | 35993 ft | 417 kts | 337° |
| 2026-04-28 22:51 | 31.31160 | 136.70396 | 35993 ft | 417 kts | 337° |
| 2026-04-28 22:52 | 31.36670 | 136.68080 | 35993 ft | 417 kts | 337° |
| 2026-04-28 22:52 | 31.42162 | 136.65782 | 35992 ft | 417 kts | 337° |
| 2026-04-28 22:53 | 31.47675 | 136.63489 | 35992 ft | 417 kts | 337° |
| 2026-04-28 22:53 | 31.53209 | 136.61177 | 35993 ft | 417 kts | 337° |
| 2026-04-28 22:54 | 31.58711 | 136.58881 | 35992 ft | 417 kts | 337° |
| 2026-04-28 22:54 | 31.64209 | 136.56593 | 35993 ft | 417 kts | 337° |
| 2026-04-28 22:55 | 31.69765 | 136.54301 | 35992 ft | 417 kts | 337° |
| 2026-04-28 22:55 | 31.75269 | 136.52005 | 35993 ft | 417 kts | 337° |
| 2026-04-28 22:56 | 31.80784 | 136.49674 | 35992 ft | 416 kts | 337° |
| 2026-04-28 22:56 | 31.86275 | 136.47350 | 35993 ft | 416 kts | 337° |
| 2026-04-28 22:57 | 31.91776 | 136.45048 | 35993 ft | 417 kts | 337° |
| 2026-04-28 22:57 | 31.97309 | 136.42738 | 35992 ft | 417 kts | 337° |
| 2026-04-28 22:58 | 32.02789 | 136.40434 | 35993 ft | 416 kts | 337° |
| 2026-04-28 22:58 | 32.08311 | 136.38086 | 35993 ft | 416 kts | 336° |
| 2026-04-28 22:59 | 32.13806 | 136.35751 | 35992 ft | 416 kts | 337° |
| 2026-04-28 22:59 | 32.19279 | 136.33453 | 35992 ft | 415 kts | 337° |
| 2026-04-28 23:00 | 32.24799 | 136.31133 | 35992 ft | 416 kts | 336° |
| 2026-04-28 23:00 | 32.30273 | 136.28798 | 35992 ft | 415 kts | 335° |
| 2026-04-28 23:01 | 32.35413 | 136.25699 | 35994 ft | 411 kts | 324° |
| 2026-04-28 23:01 | 32.40228 | 136.21922 | 35993 ft | 411 kts | 324° |
| 2026-04-28 23:02 | 32.45076 | 136.18170 | 35992 ft | 410 kts | 323° |
| 2026-04-28 23:02 | 32.49840 | 136.14395 | 35993 ft | 410 kts | 323° |
| 2026-04-28 23:03 | 32.54609 | 136.10585 | 35993 ft | 411 kts | 323° |
| 2026-04-28 23:03 | 32.59382 | 136.06773 | 35993 ft | 410 kts | 323° |
| 2026-04-28 23:04 | 32.63778 | 136.03253 | 35993 ft | 411 kts | 323° |
| 2026-04-28 23:04 | 32.70938 | 135.97488 | 35993 ft | 410 kts | 323° |
| 2026-04-28 23:05 | 32.75705 | 135.93642 | 35992 ft | 410 kts | 323° |
| 2026-04-28 23:05 | 32.80481 | 135.89803 | 35992 ft | 410 kts | 323° |
| 2026-04-28 23:06 | 32.85208 | 135.85982 | 35992 ft | 409 kts | 323° |
| 2026-04-28 23:06 | 32.89948 | 135.82109 | 35993 ft | 409 kts | 323° |
| 2026-04-28 23:07 | 32.92295 | 135.80186 | 35740 ft | 406 kts | 323° |
| 2026-04-28 23:07 | 32.94617 | 135.78294 | 35278 ft | 400 kts | 323° |
| 2026-04-28 23:07 | 32.96919 | 135.76431 | 34788 ft | 395 kts | 323° |
| 2026-04-28 23:07 | 32.99200 | 135.74591 | 34291 ft | 390 kts | 322° |
| 2026-04-28 23:08 | 33.01440 | 135.72777 | 33796 ft | 386 kts | 322° |
| 2026-04-28 23:08 | 33.03652 | 135.70984 | 33306 ft | 381 kts | 322° |
| 2026-04-28 23:08 | 33.05846 | 135.69212 | 32821 ft | 377 kts | 322° |
| 2026-04-28 23:08 | 33.08019 | 135.67447 | 32338 ft | 372 kts | 321° |
| 2026-04-28 23:09 | 33.10151 | 135.65700 | 31861 ft | 367 kts | 321° |
| 2026-04-28 23:09 | 33.12219 | 135.64006 | 31396 ft | 363 kts | 321° |
| 2026-04-28 23:09 | 33.14262 | 135.62335 | 30940 ft | 359 kts | 321° |
| 2026-04-28 23:09 | 33.16365 | 135.60616 | 30471 ft | 358 kts | 321° |
| 2026-04-28 23:10 | 33.18337 | 135.59000 | 30029 ft | 362 kts | 321° |
| 2026-04-28 23:10 | 33.20416 | 135.57298 | 29551 ft | 357 kts | 321° |
| 2026-04-28 23:10 | 33.22460 | 135.55629 | 29090 ft | 353 kts | 322° |
| 2026-04-28 23:10 | 33.24466 | 135.53987 | 28637 ft | 349 kts | 322° |
| 2026-04-28 23:11 | 33.26474 | 135.52342 | 28182 ft | 345 kts | 321° |
| 2026-04-28 23:11 | 33.28444 | 135.50725 | 27737 ft | 347 kts | 322° |
| 2026-04-28 23:11 | 33.30419 | 135.49104 | 27209 ft | 347 kts | 322° |
| 2026-04-28 23:11 | 33.32404 | 135.47476 | 26599 ft | 347 kts | 322° |
| 2026-04-28 23:12 | 33.34404 | 135.45834 | 26114 ft | 343 kts | 322° |
| 2026-04-28 23:12 | 33.36369 | 135.44174 | 25654 ft | 338 kts | 319° |
| 2026-04-28 23:12 | 33.38138 | 135.42345 | 25216 ft | 332 kts | 314° |
| 2026-04-28 23:12 | 33.39818 | 135.40463 | 24780 ft | 328 kts | 315° |
| 2026-04-28 23:13 | 33.41536 | 135.38594 | 24341 ft | 325 kts | 315° |
| 2026-04-28 23:13 | 33.43243 | 135.36746 | 23910 ft | 329 kts | 315° |
| 2026-04-28 23:13 | 33.44941 | 135.34895 | 23470 ft | 328 kts | 315° |
| 2026-04-28 23:13 | 33.46631 | 135.33052 | 23037 ft | 325 kts | 315° |
| 2026-04-28 23:14 | 33.48327 | 135.31265 | 22610 ft | 321 kts | 317° |
| 2026-04-28 23:14 | 33.50033 | 135.29524 | 22186 ft | 318 kts | 317° |
| 2026-04-28 23:14 | 33.51737 | 135.27769 | 21762 ft | 317 kts | 316° |
| 2026-04-28 23:14 | 33.53307 | 135.26143 | 21371 ft | 322 kts | 317° |
| 2026-04-28 23:15 | 33.55047 | 135.24344 | 20924 ft | 318 kts | 317° |
| 2026-04-28 23:15 | 33.56713 | 135.22623 | 20503 ft | 315 kts | 317° |
| 2026-04-28 23:15 | 33.58376 | 135.20900 | 20086 ft | 311 kts | 317° |
| 2026-04-28 23:15 | 33.60034 | 135.19182 | 19673 ft | 308 kts | 317° |
| 2026-04-28 23:16 | 33.61681 | 135.17474 | 19261 ft | 313 kts | 317° |
| 2026-04-28 23:16 | 33.63310 | 135.15784 | 18846 ft | 311 kts | 317° |
| 2026-04-28 23:16 | 33.64835 | 135.13966 | 18438 ft | 306 kts | 308° |
| 2026-04-28 23:16 | 33.65988 | 135.11827 | 18031 ft | 302 kts | 295° |
| 2026-04-28 23:17 | 33.66724 | 135.09470 | 17634 ft | 300 kts | 288° |
| 2026-04-28 23:17 | 33.67373 | 135.07048 | 17226 ft | 306 kts | 288° |
| 2026-04-28 23:17 | 33.68062 | 135.04611 | 16813 ft | 302 kts | 289° |
| 2026-04-28 23:17 | 33.68734 | 135.02202 | 16411 ft | 299 kts | 288° |
| 2026-04-28 23:18 | 33.69384 | 134.99832 | 16016 ft | 296 kts | 288° |
| 2026-04-28 23:18 | 33.70038 | 134.97450 | 15625 ft | 299 kts | 288° |
| 2026-04-28 23:18 | 33.70692 | 134.95061 | 15222 ft | 300 kts | 288° |
| 2026-04-28 23:18 | 33.71337 | 134.92697 | 14827 ft | 297 kts | 288° |
| 2026-04-28 23:19 | 33.71977 | 134.90350 | 14436 ft | 294 kts | 288° |
| 2026-04-28 23:19 | 33.72614 | 134.88013 | 14048 ft | 292 kts | 288° |
| 2026-04-28 23:19 | 33.73264 | 134.85623 | 13639 ft | 298 kts | 288° |
| 2026-04-28 23:19 | 33.73906 | 134.83266 | 13223 ft | 296 kts | 288° |
| 2026-04-28 23:20 | 33.74398 | 134.80843 | 12801 ft | 294 kts | 275° |
| 2026-04-28 23:20 | 33.74404 | 134.78415 | 12421 ft | 291 kts | 269° |
| 2026-04-28 23:20 | 33.74369 | 134.75993 | 12031 ft | 289 kts | 270° |
| 2026-04-28 23:20 | 33.74365 | 134.73547 | 11644 ft | 286 kts | 270° |
| 2026-04-28 23:21 | 33.74354 | 134.71143 | 11270 ft | 290 kts | 270° |
| 2026-04-28 23:21 | 33.74340 | 134.68712 | 10878 ft | 289 kts | 270° |
| 2026-04-28 23:21 | 33.74326 | 134.66267 | 10490 ft | 286 kts | 270° |
| 2026-04-28 23:21 | 33.74558 | 134.63902 | 10194 ft | 278 kts | 290° |
| 2026-04-28 23:22 | 33.75563 | 134.61998 | 10083 ft | 265 kts | 316° |
| 2026-04-28 23:22 | 33.77094 | 134.60751 | 10001 ft | 258 kts | 337° |
| 2026-04-28 23:22 | 33.78860 | 134.60313 | 9993 ft | 264 kts | 2° |
| 2026-04-28 23:22 | 33.80667 | 134.60773 | 10003 ft | 267 kts | 15° |
| 2026-04-28 23:23 | 33.82480 | 134.61389 | 9991 ft | 266 kts | 13° |
| 2026-04-28 23:23 | 33.84282 | 134.61957 | 9992 ft | 266 kts | 14° |
| 2026-04-28 23:23 | 33.86087 | 134.62541 | 9992 ft | 266 kts | 14° |
| 2026-04-28 23:23 | 33.87902 | 134.63133 | 9992 ft | 266 kts | 14° |
| 2026-04-28 23:24 | 33.89681 | 134.63715 | 9993 ft | 266 kts | 14° |
| 2026-04-28 23:24 | 33.91491 | 134.64307 | 9993 ft | 266 kts | 14° |
| 2026-04-28 23:24 | 33.93292 | 134.64897 | 9993 ft | 266 kts | 14° |
| 2026-04-28 23:24 | 33.95091 | 134.65486 | 9993 ft | 266 kts | 14° |
| 2026-04-28 23:25 | 33.96901 | 134.66080 | 9992 ft | 266 kts | 14° |
| 2026-04-28 23:25 | 33.98659 | 134.66656 | 9867 ft | 257 kts | 14° |
| 2026-04-28 23:25 | 34.00416 | 134.67233 | 9602 ft | 264 kts | 14° |
| 2026-04-28 23:25 | 34.02214 | 134.67824 | 9281 ft | 261 kts | 14° |
| 2026-04-28 23:26 | 34.03972 | 134.68402 | 8966 ft | 259 kts | 14° |
| 2026-04-28 23:26 | 34.05712 | 134.68974 | 8653 ft | 256 kts | 14° |
| 2026-04-28 23:26 | 34.07426 | 134.69537 | 8344 ft | 253 kts | 14° |
| 2026-04-28 23:26 | 34.09128 | 134.70097 | 8038 ft | 251 kts | 14° |
| 2026-04-28 23:27 | 34.10809 | 134.70650 | 7740 ft | 253 kts | 14° |
| 2026-04-28 23:27 | 34.12525 | 134.71216 | 7424 ft | 254 kts | 14° |
| 2026-04-28 23:27 | 34.14192 | 134.71881 | 7118 ft | 251 kts | 26° |
| 2026-04-28 23:27 | 34.15497 | 134.73228 | 7000 ft | 238 kts | 53° |
| 2026-04-28 23:28 | 34.16296 | 134.74902 | 6974 ft | 221 kts | 60° |
| 2026-04-28 23:28 | 34.17032 | 134.76508 | 6856 ft | 214 kts | 59° |
| 2026-04-28 23:28 | 34.17764 | 134.78102 | 6633 ft | 215 kts | 59° |
| 2026-04-28 23:28 | 34.18486 | 134.79692 | 6378 ft | 214 kts | 59° |
| 2026-04-28 23:29 | 34.19204 | 134.81271 | 6121 ft | 212 kts | 59° |
| 2026-04-28 23:29 | 34.19923 | 134.82860 | 5861 ft | 211 kts | 59° |
| 2026-04-28 23:29 | 34.20630 | 134.84421 | 5604 ft | 210 kts | 59° |
| 2026-04-28 23:29 | 34.21336 | 134.85980 | 5347 ft | 209 kts | 59° |
| 2026-04-28 23:30 | 34.22039 | 134.87535 | 5091 ft | 208 kts | 59° |
| 2026-04-28 23:30 | 34.22742 | 134.89090 | 4835 ft | 207 kts | 59° |
| 2026-04-28 23:30 | 34.23381 | 134.90651 | 4584 ft | 207 kts | 64° |
| 2026-04-28 23:30 | 34.23963 | 134.92259 | 4332 ft | 205 kts | 64° |
| 2026-04-28 23:31 | 34.24529 | 134.93813 | 4094 ft | 195 kts | 64° |
| 2026-04-28 23:31 | 34.25060 | 134.95276 | 3984 ft | 178 kts | 64° |
| 2026-04-28 23:31 | 34.25555 | 134.96669 | 3992 ft | 182 kts | 64° |
| 2026-04-28 23:31 | 34.26057 | 134.98068 | 3996 ft | 181 kts | 63° |
| 2026-04-28 23:32 | 34.26604 | 134.99452 | 3993 ft | 180 kts | 60° |
| 2026-04-28 23:32 | 34.27209 | 135.00780 | 3993 ft | 179 kts | 56° |
| 2026-04-28 23:32 | 34.27869 | 135.02084 | 3993 ft | 179 kts | 57° |
| 2026-04-28 23:32 | 34.28536 | 135.03301 | 3773 ft | 172 kts | 50° |
| 2026-04-28 23:33 | 34.29286 | 135.04465 | 3428 ft | 170 kts | 49° |
| 2026-04-28 23:33 | 34.30045 | 135.05603 | 3257 ft | 174 kts | 49° |
| 2026-04-28 23:33 | 34.30806 | 135.06734 | 3097 ft | 173 kts | 48° |
| 2026-04-28 23:33 | 34.31566 | 135.07858 | 2947 ft | 173 kts | 48° |
| 2026-04-28 23:34 | 34.32340 | 135.09003 | 2751 ft | 172 kts | 49° |
| 2026-04-28 23:34 | 34.33083 | 135.10103 | 2585 ft | 163 kts | 48° |
| 2026-04-28 23:34 | 34.33781 | 135.11137 | 2482 ft | 153 kts | 48° |
| 2026-04-28 23:34 | 34.34465 | 135.12149 | 2275 ft | 152 kts | 48° |
| 2026-04-28 23:35 | 34.35128 | 135.13130 | 2082 ft | 150 kts | 49° |
| 2026-04-28 23:35 | 34.35787 | 135.14107 | 1879 ft | 150 kts | 49° |
| 2026-04-28 23:35 | 34.36433 | 135.15065 | 1680 ft | 149 kts | 49° |
| 2026-04-28 23:35 | 34.37095 | 135.16046 | 1475 ft | 149 kts | 49° |
| 2026-04-28 23:36 | 34.37741 | 135.17004 | 1276 ft | 148 kts | 49° |
| 2026-04-28 23:36 | 34.38398 | 135.17979 | 1073 ft | 147 kts | 49° |
| 2026-04-28 23:36 | 34.39045 | 135.18938 | 873 ft | 147 kts | 49° |
| 2026-04-28 23:36 | 34.39687 | 135.19891 | 681 ft | 146 kts | 49° |
| 2026-04-28 23:37 | 34.40326 | 135.20840 | 486 ft | 145 kts | 49° |
| 2026-04-28 23:37 | 34.40950 | 135.21777 | 318 ft | 144 kts | 50° |
| 2026-04-28 23:37 | 34.41568 | 135.22699 | 134 ft | 145 kts | 49° |
| 2026-04-28 23:37 | 34.42178 | 135.23578 | 10 ft | 133 kts | 50° |